createdAt,value
2016-10-18T00:00:38.572Z,1011.18
2016-10-18T00:01:38.376Z,1011.16
2016-10-18T00:02:38.406Z,1011.14
2016-10-18T00:03:38.476Z,1011.12
2016-10-18T00:04:38.625Z,1011.15
2016-10-18T00:05:38.358Z,1011.16
2016-10-18T00:06:39.774Z,1011.14
2016-10-18T00:07:38.660Z,1011.17
2016-10-18T00:08:38.694Z,1011.18
2016-10-18T00:09:38.732Z,1011.2
2016-10-18T00:10:38.319Z,1011.18
2016-10-18T00:11:38.461Z,1011.21
2016-10-18T00:12:38.826Z,1011.17
2016-10-18T00:13:38.645Z,1011.17
2016-10-18T00:14:38.730Z,1011.16
2016-10-18T00:15:38.701Z,1011.19
2016-10-18T00:16:38.653Z,1011.15
2016-10-18T00:17:38.668Z,1011.14
2016-10-18T00:18:38.826Z,1011.15
2016-10-18T00:19:38.962Z,1011.12
2016-10-18T00:20:38.723Z,1011.15
2016-10-18T00:21:38.561Z,1011.13
2016-10-18T00:22:39.814Z,1011.11
2016-10-18T00:23:38.756Z,1011.13
2016-10-18T00:24:39.004Z,1011.12
2016-10-18T00:25:38.683Z,1011.11
2016-10-18T00:26:38.830Z,1011.17
2016-10-18T00:27:38.817Z,1011.16
2016-10-18T00:28:39.579Z,1011.12
2016-10-18T00:29:38.731Z,1011.15
2016-10-18T00:30:38.961Z,1011.15
2016-10-18T00:31:39.120Z,1011.14
2016-10-18T00:32:39.422Z,1011.17
2016-10-18T00:33:39.017Z,1011.2
2016-10-18T00:34:39.060Z,1011.21
2016-10-18T00:35:38.987Z,1011.23
2016-10-18T00:36:39.034Z,1011.23
2016-10-18T00:37:38.942Z,1011.19
2016-10-18T00:38:39.189Z,1011.25
2016-10-18T00:39:39.533Z,1011.21
2016-10-18T00:40:40.183Z,1011.26
2016-10-18T00:41:39.113Z,1011.26
2016-10-18T00:42:39.236Z,1011.27
2016-10-18T00:43:39.264Z,1011.28
2016-10-18T00:44:40.462Z,1011.26
2016-10-18T00:45:39.433Z,1011.26
2016-10-18T00:46:39.169Z,1011.25
2016-10-18T00:47:39.298Z,1011.27
2016-10-18T00:48:39.703Z,1011.28
2016-10-18T00:49:39.531Z,1011.31
2016-10-18T00:50:39.396Z,1011.31
2016-10-18T00:51:39.464Z,1011.31
2016-10-18T00:52:39.451Z,1011.34
2016-10-18T00:53:40.331Z,1011.35
2016-10-18T00:54:39.410Z,1011.36
2016-10-18T00:55:39.540Z,1011.38
2016-10-18T00:56:39.436Z,1011.39
2016-10-18T00:57:39.950Z,1011.42
2016-10-18T00:58:39.348Z,1011.4
2016-10-18T00:59:39.904Z,1011.42
2016-10-18T01:00:39.370Z,1011.38
2016-10-18T01:01:40.158Z,1011.38
2016-10-18T01:02:39.508Z,1011.36
2016-10-18T01:03:40.172Z,1011.38
2016-10-18T01:04:40.345Z,1011.42
2016-10-18T01:05:40.291Z,1011.43
2016-10-18T01:06:40.178Z,1011.44
2016-10-18T01:07:40.522Z,1011.42
2016-10-18T01:08:39.524Z,1011.43
2016-10-18T01:09:39.596Z,1011.45
2016-10-18T01:10:39.824Z,1011.47
2016-10-18T01:11:40.293Z,1011.43
2016-10-18T01:12:40.047Z,1011.44
2016-10-18T01:13:39.798Z,1011.43
2016-10-18T01:14:39.973Z,1011.45
2016-10-18T01:15:39.959Z,1011.44
2016-10-18T01:16:40.653Z,1011.46
2016-10-18T01:17:40.759Z,1011.45
2016-10-18T01:18:40.456Z,1011.45
2016-10-18T01:19:40.576Z,1011.45
2016-10-18T01:20:40.102Z,1011.46
2016-10-18T01:21:40.199Z,1011.42
2016-10-18T01:22:40.003Z,1011.44
2016-10-18T01:23:40.073Z,1011.43
2016-10-18T01:24:40.209Z,1011.47
2016-10-18T01:25:40.816Z,1011.4
2016-10-18T01:26:41.109Z,1011.46
2016-10-18T01:27:41.268Z,1011.46
2016-10-18T01:28:40.116Z,1011.5
2016-10-18T01:29:40.337Z,1011.46
2016-10-18T01:30:40.388Z,1011.4
2016-10-18T01:31:40.827Z,1011.41
2016-10-18T01:32:40.928Z,1011.4
2016-10-18T01:33:40.215Z,1011.36
2016-10-18T01:34:40.383Z,1011.36
2016-10-18T01:35:40.232Z,1011.34
2016-10-18T01:36:40.372Z,1011.37
2016-10-18T01:37:41.003Z,1011.36
2016-10-18T01:38:40.661Z,1011.35
2016-10-18T01:39:40.333Z,1011.35
2016-10-18T01:40:40.920Z,1011.3
2016-10-18T01:41:40.370Z,1011.29
2016-10-18T01:42:40.533Z,1011.29
2016-10-18T01:43:40.624Z,1011.26
2016-10-18T01:44:40.217Z,1011.23
2016-10-18T01:45:41.001Z,1011.26
2016-10-18T01:46:40.336Z,1011.23
2016-10-18T01:47:41.297Z,1011.24
2016-10-18T01:48:40.421Z,1011.3
2016-10-18T01:49:40.765Z,1011.28
2016-10-18T01:50:40.879Z,1011.26
2016-10-18T01:51:41.432Z,1011.27
2016-10-18T01:52:41.728Z,1011.25
2016-10-18T01:53:40.983Z,1011.28
2016-10-18T01:54:41.625Z,1011.29
2016-10-18T01:55:41.271Z,1011.26
2016-10-18T01:56:41.544Z,1011.22
2016-10-18T01:57:40.605Z,1011.26
2016-10-18T01:58:41.161Z,1011.22
2016-10-18T01:59:40.556Z,1011.22
2016-10-18T02:00:40.738Z,1011.18
2016-10-18T02:01:40.643Z,1011.17
2016-10-18T02:02:41.107Z,1011.19
2016-10-18T02:03:40.496Z,1011.22
2016-10-18T02:04:41.389Z,1011.2
2016-10-18T02:05:40.704Z,1011.21
2016-10-18T02:06:40.652Z,1011.21
2016-10-18T02:07:40.709Z,1011.23
2016-10-18T02:08:41.345Z,1011.22
2016-10-18T02:09:41.232Z,1011.2
2016-10-18T02:10:41.092Z,1011.24
2016-10-18T02:11:41.140Z,1011.21
2016-10-18T02:12:41.001Z,1011.23
2016-10-18T02:13:40.714Z,1011.2
2016-10-18T02:14:41.411Z,1011.24
2016-10-18T02:15:41.069Z,1011.24
2016-10-18T02:16:41.308Z,1011.26
2016-10-18T02:17:41.067Z,1011.24
2016-10-18T02:18:41.113Z,1011.19
2016-10-18T02:19:41.141Z,1011.22
2016-10-18T02:20:41.243Z,1011.21
2016-10-18T02:21:41.116Z,1011.23
2016-10-18T02:22:41.099Z,1011.25
2016-10-18T02:23:41.493Z,1011.27
2016-10-18T02:24:41.068Z,1011.27
2016-10-18T02:25:41.505Z,1011.28
2016-10-18T02:26:41.448Z,1011.26
2016-10-18T02:27:41.001Z,1011.23
2016-10-18T02:28:41.362Z,1011.24
2016-10-18T02:29:41.732Z,1011.23
2016-10-18T02:30:41.589Z,1011.22
2016-10-18T02:31:41.094Z,1011.19
2016-10-18T02:32:41.523Z,1011.22
2016-10-18T02:33:41.342Z,1011.19
2016-10-18T02:34:41.202Z,1011.12
2016-10-18T02:35:41.280Z,1011.13
2016-10-18T02:36:41.987Z,1011.15
2016-10-18T02:37:42.023Z,1011.11
2016-10-18T02:38:41.711Z,1011.12
2016-10-18T02:39:42.202Z,1011.1
2016-10-18T02:40:41.534Z,1011.09
2016-10-18T02:41:41.376Z,1011.08
2016-10-18T02:42:41.312Z,1011.08
2016-10-18T02:43:41.385Z,1011.11
2016-10-18T02:44:41.606Z,1011.11
2016-10-18T02:45:41.591Z,1011.12
2016-10-18T02:46:41.625Z,1011.09
2016-10-18T02:47:41.964Z,1011.09
2016-10-18T02:48:41.821Z,1011.11
2016-10-18T02:49:41.762Z,1011.14
2016-10-18T02:50:41.785Z,1011.1
2016-10-18T02:51:41.729Z,1011.14
2016-10-18T02:52:41.813Z,1011.12
2016-10-18T02:53:41.754Z,1011.09
2016-10-18T02:54:42.122Z,1011.11
2016-10-18T02:55:42.606Z,1011.1
2016-10-18T02:56:41.793Z,1011.11
2016-10-18T02:57:41.754Z,1011.11
2016-10-18T02:58:41.967Z,1011.09
2016-10-18T02:59:41.916Z,1011.11
2016-10-18T03:00:42.038Z,1011.09
2016-10-18T03:01:41.864Z,1011.06
2016-10-18T03:02:41.874Z,1011.02
2016-10-18T03:03:41.659Z,1011.07
2016-10-18T03:04:42.032Z,1011.07
2016-10-18T03:05:42.413Z,1011.06
2016-10-18T03:06:42.401Z,1011.06
2016-10-18T03:07:41.940Z,1011.04
2016-10-18T03:08:42.067Z,1011.02
2016-10-18T03:09:42.239Z,1011.03
2016-10-18T03:10:42.142Z,1011.03
2016-10-18T03:11:42.020Z,1011.05
2016-10-18T03:12:42.384Z,1011.04
2016-10-18T03:13:42.136Z,1011.02
2016-10-18T03:14:41.886Z,1011.08
2016-10-18T03:15:42.511Z,1011.11
2016-10-18T03:16:42.249Z,1011.06
2016-10-18T03:17:42.482Z,1011.06
2016-10-18T03:18:42.403Z,1011.08
2016-10-18T03:19:42.648Z,1011.03
2016-10-18T03:20:42.276Z,1011.01
2016-10-18T03:21:42.717Z,1011.07
2016-10-18T03:22:42.293Z,1011.04
2016-10-18T03:23:42.424Z,1011.03
2016-10-18T03:24:42.680Z,1011.05
2016-10-18T03:25:42.224Z,1011.04
2016-10-18T03:26:42.554Z,1011.01
2016-10-18T03:27:42.387Z,1011.04
2016-10-18T03:28:42.449Z,1011.06
2016-10-18T03:29:42.224Z,1011.02
2016-10-18T03:30:42.528Z,1011.03
2016-10-18T03:31:42.367Z,1011.05
2016-10-18T03:32:42.395Z,1011.03
2016-10-18T03:33:42.338Z,1011.02
2016-10-18T03:34:42.381Z,1011.03
2016-10-18T03:35:42.452Z,1011
2016-10-18T03:36:42.905Z,1010.99
2016-10-18T03:37:42.893Z,1010.96
2016-10-18T03:38:42.495Z,1010.98
2016-10-18T03:39:42.564Z,1010.98
2016-10-18T03:40:42.475Z,1010.97
2016-10-18T03:41:42.853Z,1011
2016-10-18T03:42:42.624Z,1011
2016-10-18T03:43:42.609Z,1010.98
2016-10-18T03:44:42.702Z,1010.97
2016-10-18T03:45:42.565Z,1010.98
2016-10-18T03:46:42.596Z,1010.96
2016-10-18T03:47:42.724Z,1010.92
2016-10-18T03:48:42.852Z,1010.92
2016-10-18T03:49:42.741Z,1010.95
2016-10-18T03:50:42.841Z,1010.93
2016-10-18T03:51:42.700Z,1010.89
2016-10-18T03:52:42.907Z,1010.88
2016-10-18T03:53:43.171Z,1010.86
2016-10-18T03:54:42.675Z,1010.88
2016-10-18T03:55:42.909Z,1010.89
2016-10-18T03:56:42.829Z,1010.83
2016-10-18T03:57:43.411Z,1010.87
2016-10-18T03:58:43.385Z,1010.81
2016-10-18T03:59:42.995Z,1010.81
2016-10-18T04:00:43.167Z,1010.83
2016-10-18T04:01:43.294Z,1010.83
2016-10-18T04:02:42.900Z,1010.83
2016-10-18T04:03:43.071Z,1010.81
2016-10-18T04:04:43.205Z,1010.81
2016-10-18T04:05:43.292Z,1010.77
2016-10-18T04:06:43.205Z,1010.82
2016-10-18T04:07:43.222Z,1010.79
2016-10-18T04:08:43.316Z,1010.85
2016-10-18T04:09:43.011Z,1010.85
2016-10-18T04:10:43.691Z,1010.92
2016-10-18T04:11:43.079Z,1010.87
2016-10-18T04:12:43.156Z,1010.87
2016-10-18T04:13:43.583Z,1010.84
2016-10-18T04:14:43.404Z,1010.86
2016-10-18T04:15:43.444Z,1010.9
2016-10-18T04:16:43.156Z,1010.89
2016-10-18T04:17:43.701Z,1010.88
2016-10-18T04:18:43.710Z,1010.88
2016-10-18T04:19:43.793Z,1010.9
2016-10-18T04:20:43.285Z,1010.86
2016-10-18T04:21:43.420Z,1010.84
2016-10-18T04:22:44.179Z,1010.82
2016-10-18T04:23:43.995Z,1010.86
2016-10-18T04:24:43.265Z,1010.84
2016-10-18T04:25:43.634Z,1010.85
2016-10-18T04:26:43.170Z,1010.87
2016-10-18T04:27:43.937Z,1010.91
2016-10-18T04:28:44.161Z,1010.87
2016-10-18T04:29:43.514Z,1010.88
2016-10-18T04:30:43.987Z,1010.91
2016-10-18T04:31:43.563Z,1010.87
2016-10-18T04:32:43.354Z,1010.85
2016-10-18T04:33:43.838Z,1010.88
2016-10-18T04:34:43.776Z,1010.86
2016-10-18T04:35:44.006Z,1010.81
2016-10-18T04:36:43.531Z,1010.84
2016-10-18T04:37:43.753Z,1010.81
2016-10-18T04:38:43.939Z,1010.83
2016-10-18T04:39:43.499Z,1010.84
2016-10-18T04:40:44.006Z,1010.79
2016-10-18T04:41:44.080Z,1010.79
2016-10-18T04:42:43.693Z,1010.76
2016-10-18T04:43:44.006Z,1010.77
2016-10-18T04:44:44.037Z,1010.75
2016-10-18T04:45:43.731Z,1010.73
2016-10-18T04:46:44.011Z,1010.74
2016-10-18T04:47:43.914Z,1010.73
2016-10-18T04:48:44.479Z,1010.72
2016-10-18T04:49:44.023Z,1010.71
2016-10-18T04:50:43.913Z,1010.67
2016-10-18T04:51:43.903Z,1010.67
2016-10-18T04:52:44.116Z,1010.66
2016-10-18T04:53:43.852Z,1010.67
2016-10-18T04:54:44.344Z,1010.66
2016-10-18T04:55:44.287Z,1010.67
2016-10-18T04:56:44.194Z,1010.67
2016-10-18T04:57:44.034Z,1010.66
2016-10-18T04:58:44.117Z,1010.65
2016-10-18T04:59:44.260Z,1010.68
2016-10-18T05:00:43.960Z,1010.62
2016-10-18T05:01:45.013Z,1010.63
2016-10-18T05:02:44.405Z,1010.62
2016-10-18T05:03:43.943Z,1010.63
2016-10-18T05:04:43.976Z,1010.64
2016-10-18T05:05:44.004Z,1010.62
2016-10-18T05:06:44.172Z,1010.68
2016-10-18T05:07:43.995Z,1010.65
2016-10-18T05:08:44.332Z,1010.65
2016-10-18T05:09:44.581Z,1010.64
2016-10-18T05:10:44.175Z,1010.62
2016-10-18T05:11:45.682Z,1010.6
2016-10-18T05:12:44.589Z,1010.62
2016-10-18T05:13:45.669Z,1010.57
2016-10-18T05:14:44.522Z,1010.63
2016-10-18T05:15:44.272Z,1010.66
2016-10-18T05:16:44.171Z,1010.67
2016-10-18T05:17:44.669Z,1010.63
2016-10-18T05:18:44.635Z,1010.6
2016-10-18T05:19:44.598Z,1010.62
2016-10-18T05:20:44.400Z,1010.58
2016-10-18T05:21:45.029Z,1010.59
2016-10-18T05:22:44.521Z,1010.55
2016-10-18T05:23:45.405Z,1010.61
2016-10-18T05:24:44.310Z,1010.64
2016-10-18T05:25:45.084Z,1010.63
2016-10-18T05:26:45.065Z,1010.64
2016-10-18T05:27:44.564Z,1010.65
2016-10-18T05:28:45.223Z,1010.68
2016-10-18T05:29:45.159Z,1010.67
2016-10-18T05:30:45.090Z,1010.67
2016-10-18T05:31:44.965Z,1010.66
2016-10-18T05:32:45.504Z,1010.7
2016-10-18T05:33:45.120Z,1010.74
2016-10-18T05:34:44.594Z,1010.75
2016-10-18T05:35:45.034Z,1010.71
2016-10-18T05:36:44.714Z,1010.7
2016-10-18T05:37:44.709Z,1010.67
2016-10-18T05:38:45.077Z,1010.69
2016-10-18T05:39:44.612Z,1010.65
2016-10-18T05:40:44.967Z,1010.69
2016-10-18T05:41:44.697Z,1010.67
2016-10-18T05:42:45.144Z,1010.68
2016-10-18T05:43:45.147Z,1010.7
2016-10-18T05:44:45.451Z,1010.69
2016-10-18T05:45:45.297Z,1010.72
2016-10-18T05:46:45.336Z,1010.7
2016-10-18T05:47:44.902Z,1010.66
2016-10-18T05:48:45.116Z,1010.64
2016-10-18T05:49:45.392Z,1010.67
2016-10-18T05:50:45.625Z,1010.72
2016-10-18T05:51:45.271Z,1010.71
2016-10-18T05:52:44.910Z,1010.68
2016-10-18T05:53:45.434Z,1010.64
2016-10-18T05:54:45.195Z,1010.63
2016-10-18T05:55:45.417Z,1010.63
2016-10-18T05:56:45.530Z,1010.66
2016-10-18T05:57:45.234Z,1010.69
2016-10-18T05:58:45.433Z,1010.72
2016-10-18T05:59:45.277Z,1010.74
2016-10-18T06:00:45.799Z,1010.76
2016-10-18T06:01:45.598Z,1010.76
2016-10-18T06:02:45.229Z,1010.75
2016-10-18T06:03:45.302Z,1010.77
2016-10-18T06:04:45.416Z,1010.74
2016-10-18T06:05:45.308Z,1010.73
2016-10-18T06:06:45.833Z,1010.73
2016-10-18T06:07:45.814Z,1010.76
2016-10-18T06:08:45.431Z,1010.77
2016-10-18T06:09:45.365Z,1010.76
2016-10-18T06:10:45.188Z,1010.73
2016-10-18T06:11:46.529Z,1010.73
2016-10-18T06:12:45.659Z,1010.74
2016-10-18T06:13:45.200Z,1010.74
2016-10-18T06:14:45.617Z,1010.73
2016-10-18T06:15:45.867Z,1010.76
2016-10-18T06:16:45.722Z,1010.77
2016-10-18T06:17:45.405Z,1010.74
2016-10-18T06:18:45.998Z,1010.75
2016-10-18T06:19:45.720Z,1010.77
2016-10-18T06:20:45.428Z,1010.79
2016-10-18T06:21:45.413Z,1010.8
2016-10-18T06:22:45.714Z,1010.81
2016-10-18T06:23:46.040Z,1010.8
2016-10-18T06:24:45.792Z,1010.84
2016-10-18T06:25:46.568Z,1010.88
2016-10-18T06:26:45.519Z,1010.88
2016-10-18T06:27:45.616Z,1010.88
2016-10-18T06:28:45.584Z,1010.93
2016-10-18T06:29:45.928Z,1010.95
2016-10-18T06:30:45.709Z,1011.01
2016-10-18T06:31:45.488Z,1011.01
2016-10-18T06:32:45.771Z,1010.97
2016-10-18T06:33:46.040Z,1010.91
2016-10-18T06:34:45.979Z,1010.94
2016-10-18T06:35:45.765Z,1010.93
2016-10-18T06:36:45.615Z,1010.87
2016-10-18T06:37:46.009Z,1010.95
2016-10-18T06:38:45.795Z,1010.92
2016-10-18T06:39:45.913Z,1010.93
2016-10-18T06:40:46.368Z,1010.94
2016-10-18T06:41:46.168Z,1010.97
2016-10-18T06:42:45.848Z,1010.98
2016-10-18T06:43:46.106Z,1010.98
2016-10-18T06:44:46.077Z,1010.98
2016-10-18T06:45:45.909Z,1010.98
2016-10-18T06:46:45.719Z,1010.99
2016-10-18T06:47:46.110Z,1010.99
2016-10-18T06:48:45.815Z,1011
2016-10-18T06:49:45.923Z,1011
2016-10-18T06:50:46.404Z,1011
2016-10-18T06:51:46.138Z,1011.04
2016-10-18T06:52:46.191Z,1011.09
2016-10-18T06:53:46.667Z,1011.08
2016-10-18T06:54:46.217Z,1011.1
2016-10-18T06:55:46.054Z,1011.1
2016-10-18T06:56:46.238Z,1011.13
2016-10-18T06:57:46.210Z,1011.12
2016-10-18T06:58:46.747Z,1011.12
2016-10-18T06:59:46.413Z,1011.1
2016-10-18T07:00:46.749Z,1011.16
2016-10-18T07:01:46.305Z,1011.15
2016-10-18T07:02:46.575Z,1011.09
2016-10-18T07:03:46.638Z,1011.09
2016-10-18T07:04:46.300Z,1011.1
2016-10-18T07:05:46.352Z,1011.07
2016-10-18T07:06:46.252Z,1011.11
2016-10-18T07:07:46.701Z,1011.1
2016-10-18T07:08:46.493Z,1011.1
2016-10-18T07:09:46.254Z,1011.04
2016-10-18T07:10:46.690Z,1011.07
2016-10-18T07:11:46.375Z,1011.13
2016-10-18T07:12:46.545Z,1011.13
2016-10-18T07:13:46.980Z,1011.14
2016-10-18T07:14:46.658Z,1011.19
2016-10-18T07:15:46.410Z,1011.26
2016-10-18T07:16:46.392Z,1011.22
2016-10-18T07:17:46.631Z,1011.28
2016-10-18T07:18:46.719Z,1011.26
2016-10-18T07:19:46.973Z,1011.26
2016-10-18T07:20:46.624Z,1011.26
2016-10-18T07:21:47.157Z,1011.22
2016-10-18T07:22:46.488Z,1011.24
2016-10-18T07:23:46.689Z,1011.26
2016-10-18T07:24:46.586Z,1011.26
2016-10-18T07:25:46.940Z,1011.26
2016-10-18T07:26:46.597Z,1011.24
2016-10-18T07:27:46.577Z,1011.21
2016-10-18T07:28:46.659Z,1011.22
2016-10-18T07:29:46.588Z,1011.18
2016-10-18T07:30:47.010Z,1011.13
2016-10-18T07:31:46.928Z,1011.13
2016-10-18T07:32:46.667Z,1011.16
2016-10-18T07:33:46.822Z,1011.13
2016-10-18T07:34:46.812Z,1011.15
2016-10-18T07:35:46.773Z,1011.2
2016-10-18T07:36:46.960Z,1011.2
2016-10-18T07:37:46.916Z,1011.21
2016-10-18T07:38:46.999Z,1011.22
2016-10-18T07:39:46.969Z,1011.25
2016-10-18T07:40:47.171Z,1011.27
2016-10-18T07:41:47.449Z,1011.25
2016-10-18T07:42:46.787Z,1011.28
2016-10-18T07:43:47.086Z,1011.35
2016-10-18T07:44:46.852Z,1011.3
2016-10-18T07:45:47.656Z,1011.32
2016-10-18T07:46:47.235Z,1011.33
2016-10-18T07:47:46.928Z,1011.31
2016-10-18T07:48:47.186Z,1011.33
2016-10-18T07:49:47.685Z,1011.35
2016-10-18T07:50:47.013Z,1011.35
2016-10-18T07:51:47.254Z,1011.34
2016-10-18T07:52:47.212Z,1011.37
2016-10-18T07:53:47.300Z,1011.39
2016-10-18T07:54:47.180Z,1011.4
2016-10-18T07:55:47.204Z,1011.41
2016-10-18T07:56:47.396Z,1011.4
2016-10-18T07:57:48.200Z,1011.41
2016-10-18T07:58:47.541Z,1011.36
2016-10-18T07:59:47.574Z,1011.4
2016-10-18T08:00:47.545Z,1011.4
2016-10-18T08:01:47.225Z,1011.42
2016-10-18T08:02:47.551Z,1011.39
2016-10-18T08:03:47.458Z,1011.4
2016-10-18T08:04:47.655Z,1011.36
2016-10-18T08:05:47.604Z,1011.34
2016-10-18T08:06:47.633Z,1011.31
2016-10-18T08:07:47.853Z,1011.27
2016-10-18T08:08:48.049Z,1011.25
2016-10-18T08:09:47.612Z,1011.28
2016-10-18T08:10:47.532Z,1011.29
2016-10-18T08:11:47.621Z,1011.33
2016-10-18T08:12:47.773Z,1011.3
2016-10-18T08:13:48.026Z,1011.29
2016-10-18T08:14:47.648Z,1011.29
2016-10-18T08:15:47.512Z,1011.29
2016-10-18T08:16:47.895Z,1011.37
2016-10-18T08:17:47.958Z,1011.35
2016-10-18T08:18:47.646Z,1011.27
2016-10-18T08:19:47.563Z,1011.29
2016-10-18T08:20:47.895Z,1011.29
2016-10-18T08:21:47.800Z,1011.3
2016-10-18T08:22:47.876Z,1011.29
2016-10-18T08:23:47.771Z,1011.33
2016-10-18T08:24:47.900Z,1011.29
2016-10-18T08:25:48.021Z,1011.27
2016-10-18T08:26:47.783Z,1011.25
2016-10-18T08:27:47.870Z,1011.23
2016-10-18T08:28:47.853Z,1011.29
2016-10-18T08:29:47.794Z,1011.33
2016-10-18T08:30:47.940Z,1011.34
2016-10-18T08:31:47.933Z,1011.34
2016-10-18T08:32:48.083Z,1011.36
2016-10-18T08:33:48.216Z,1011.33
2016-10-18T08:34:48.276Z,1011.36
2016-10-18T08:35:48.104Z,1011.35
2016-10-18T08:36:47.862Z,1011.32
2016-10-18T08:37:48.561Z,1011.34
2016-10-18T08:38:48.195Z,1011.39
2016-10-18T08:39:47.926Z,1011.34
2016-10-18T08:40:48.308Z,1011.37
2016-10-18T08:41:48.128Z,1011.31
2016-10-18T08:42:48.309Z,1011.3
2016-10-18T08:43:48.273Z,1011.32
2016-10-18T08:44:48.102Z,1011.34
2016-10-18T08:45:48.163Z,1011.37
2016-10-18T08:46:48.275Z,1011.37
2016-10-18T08:47:48.336Z,1011.36
2016-10-18T08:48:48.250Z,1011.36
2016-10-18T08:49:48.240Z,1011.38
2016-10-18T08:50:48.109Z,1011.37
2016-10-18T08:51:48.358Z,1011.35
2016-10-18T08:52:48.542Z,1011.28
2016-10-18T08:53:48.180Z,1011.3
2016-10-18T08:54:48.181Z,1011.31
2016-10-18T08:55:48.280Z,1011.36
2016-10-18T08:56:48.672Z,1011.33
2016-10-18T08:57:48.550Z,1011.31
2016-10-18T08:58:48.444Z,1011.37
2016-10-18T08:59:48.543Z,1011.3
2016-10-18T09:00:48.535Z,1011.3
2016-10-18T09:01:48.559Z,1011.27
2016-10-18T09:02:48.469Z,1011.26
2016-10-18T09:03:48.729Z,1011.2
2016-10-18T09:04:48.462Z,1011.27
2016-10-18T09:05:48.742Z,1011.28
2016-10-18T09:06:48.871Z,1011.26
2016-10-18T09:07:48.880Z,1011.3
2016-10-18T09:08:48.538Z,1011.28
2016-10-18T09:09:48.895Z,1011.31
2016-10-18T09:10:48.617Z,1011.31
2016-10-18T09:11:49.379Z,1011.29
2016-10-18T09:12:48.730Z,1011.31
2016-10-18T09:13:48.729Z,1011.29
2016-10-18T09:14:49.204Z,1011.28
2016-10-18T09:15:48.883Z,1011.33
2016-10-18T09:16:48.842Z,1011.32
2016-10-18T09:17:48.752Z,1011.32
2016-10-18T09:18:48.818Z,1011.32
2016-10-18T09:19:49.407Z,1011.32
2016-10-18T09:20:49.192Z,1011.34
2016-10-18T09:21:49.052Z,1011.31
2016-10-18T09:22:49.383Z,1011.31
2016-10-18T09:23:48.777Z,1011.31
2016-10-18T09:24:49.002Z,1011.28
2016-10-18T09:25:49.016Z,1011.25
2016-10-18T09:26:49.159Z,1011.23
2016-10-18T09:27:49.219Z,1011.17
2016-10-18T09:28:49.208Z,1011.21
2016-10-18T09:29:49.254Z,1011.18
2016-10-18T09:30:49.716Z,1011.17
2016-10-18T09:31:48.962Z,1011.22
2016-10-18T09:32:49.746Z,1011.19
2016-10-18T09:33:49.159Z,1011.25
2016-10-18T09:34:49.058Z,1011.23
2016-10-18T09:35:49.155Z,1011.28
2016-10-18T09:36:49.703Z,1011.28
2016-10-18T09:37:49.584Z,1011.16
2016-10-18T09:38:49.282Z,1011.14
2016-10-18T09:39:49.258Z,1011.09
2016-10-18T09:40:49.075Z,1011.06
2016-10-18T09:41:49.463Z,1011.03
2016-10-18T09:42:49.480Z,1011.04
2016-10-18T09:43:49.261Z,1011.04
2016-10-18T09:44:49.182Z,1011.11
2016-10-18T09:45:49.478Z,1011.1
2016-10-18T09:46:49.406Z,1011.04
2016-10-18T09:47:49.566Z,1011.08
2016-10-18T09:48:50.775Z,1011.07
2016-10-18T09:49:49.676Z,1011.02
2016-10-18T09:50:49.723Z,1010.97
2016-10-18T09:51:49.400Z,1010.91
2016-10-18T09:52:50.136Z,1010.88
2016-10-18T09:53:49.645Z,1010.94
2016-10-18T09:54:49.706Z,1010.88
2016-10-18T09:55:50.087Z,1010.87
2016-10-18T09:56:50.606Z,1010.92
2016-10-18T09:57:50.380Z,1010.94
2016-10-18T09:58:49.572Z,1010.93
2016-10-18T09:59:49.553Z,1010.92
2016-10-18T10:00:49.802Z,1010.91
2016-10-18T10:01:49.802Z,1010.85
2016-10-18T10:02:49.515Z,1010.78
2016-10-18T10:03:49.525Z,1010.8
2016-10-18T10:04:49.659Z,1010.76
2016-10-18T10:05:50.091Z,1010.75
2016-10-18T10:06:50.498Z,1010.74
2016-10-18T10:07:50.261Z,1010.68
2016-10-18T10:08:49.749Z,1010.69
2016-10-18T10:09:50.124Z,1010.68
2016-10-18T10:10:50.249Z,1010.66
2016-10-18T10:11:50.065Z,1010.69
2016-10-18T10:12:50.300Z,1010.71
2016-10-18T10:13:50.251Z,1010.65
2016-10-18T10:14:50.313Z,1010.66
2016-10-18T10:15:49.830Z,1010.66
2016-10-18T10:16:50.286Z,1010.67
2016-10-18T10:17:50.696Z,1010.69
2016-10-18T10:18:50.784Z,1010.69
2016-10-18T10:19:50.412Z,1010.67
2016-10-18T10:20:50.632Z,1010.66
2016-10-18T10:21:50.684Z,1010.65
2016-10-18T10:22:50.664Z,1010.67
2016-10-18T10:23:50.370Z,1010.66
2016-10-18T10:24:50.550Z,1010.68
2016-10-18T10:25:50.382Z,1010.66
2016-10-18T10:26:50.680Z,1010.65
2016-10-18T10:27:50.786Z,1010.69
2016-10-18T10:28:50.708Z,1010.74
2016-10-18T10:29:50.475Z,1010.73
2016-10-18T10:30:50.776Z,1010.75
2016-10-18T10:31:50.933Z,1010.85
2016-10-18T10:32:50.283Z,1010.82
2016-10-18T10:33:50.314Z,1010.85
2016-10-18T10:34:50.426Z,1010.85
2016-10-18T10:35:50.321Z,1010.87
2016-10-18T10:36:50.815Z,1010.9
2016-10-18T10:37:50.571Z,1010.83
2016-10-18T10:38:51.091Z,1010.73
2016-10-18T10:39:50.660Z,1010.71
2016-10-18T10:40:51.633Z,1010.66
2016-10-18T10:41:51.065Z,1010.56
2016-10-18T10:42:50.811Z,1010.46
2016-10-18T10:43:50.580Z,1010.45
2016-10-18T10:44:51.618Z,1010.46
2016-10-18T10:45:51.295Z,1010.45
2016-10-18T10:46:51.542Z,1010.42
2016-10-18T10:47:50.965Z,1010.44
2016-10-18T10:48:51.050Z,1010.35
2016-10-18T10:49:50.911Z,1010.37
2016-10-18T10:50:51.024Z,1010.38
2016-10-18T10:51:50.663Z,1010.43
2016-10-18T10:52:51.297Z,1010.45
2016-10-18T10:53:50.922Z,1010.41
2016-10-18T10:54:51.522Z,1010.32
2016-10-18T10:55:50.917Z,1010.3
2016-10-18T10:56:51.137Z,1010.32
2016-10-18T10:57:51.035Z,1010.33
2016-10-18T10:58:51.001Z,1010.32
2016-10-18T10:59:51.144Z,1010.29
2016-10-18T11:00:51.156Z,1010.27
2016-10-18T11:01:50.967Z,1010.26
2016-10-18T11:02:51.044Z,1010.26
2016-10-18T11:03:50.895Z,1010.32
2016-10-18T11:04:51.396Z,1010.33
2016-10-18T11:05:51.291Z,1010.28
2016-10-18T11:06:51.084Z,1010.27
2016-10-18T11:07:51.381Z,1010.24
2016-10-18T11:08:51.106Z,1010.25
2016-10-18T11:09:51.147Z,1010.24
2016-10-18T11:10:51.805Z,1010.26
2016-10-18T11:11:51.870Z,1010.26
2016-10-18T11:12:51.313Z,1010.27
2016-10-18T11:13:51.537Z,1010.19
2016-10-18T11:14:51.709Z,1010.14
2016-10-18T11:15:51.275Z,1010.13
2016-10-18T11:16:51.679Z,1010.26
2016-10-18T11:17:51.482Z,1010.28
2016-10-18T11:18:51.618Z,1010.38
2016-10-18T11:19:52.191Z,1010.4
2016-10-18T11:20:51.684Z,1010.4
2016-10-18T11:21:51.856Z,1010.43
2016-10-18T11:22:51.293Z,1010.38
2016-10-18T11:23:51.613Z,1010.32
2016-10-18T11:24:51.749Z,1010.31
2016-10-18T11:25:52.164Z,1010.2
2016-10-18T11:26:51.696Z,1010.15
2016-10-18T11:27:51.597Z,1010.14
2016-10-18T11:28:51.775Z,1010.24
2016-10-18T11:29:51.876Z,1010.26
2016-10-18T11:30:51.702Z,1010.19
2016-10-18T11:31:51.530Z,1010.2
2016-10-18T11:32:52.083Z,1010.19
2016-10-18T11:33:51.748Z,1010.14
2016-10-18T11:34:52.105Z,1010.05
2016-10-18T11:35:52.175Z,1009.93
2016-10-18T11:36:51.589Z,1009.86
2016-10-18T11:37:51.705Z,1009.9
2016-10-18T11:38:51.741Z,1009.91
2016-10-18T11:39:52.127Z,1009.86
2016-10-18T11:40:51.996Z,1009.8
2016-10-18T11:41:52.031Z,1009.77
2016-10-18T11:42:51.999Z,1009.75
2016-10-18T11:43:51.914Z,1009.71
2016-10-18T11:44:52.524Z,1009.7
2016-10-18T11:45:52.132Z,1009.67
2016-10-18T11:46:51.956Z,1009.75
2016-10-18T11:47:52.857Z,1009.77
2016-10-18T11:48:52.100Z,1009.69
2016-10-18T11:49:52.157Z,1009.69
2016-10-18T11:50:52.108Z,1009.69
2016-10-18T11:51:52.134Z,1009.69
2016-10-18T11:52:52.361Z,1009.63
2016-10-18T11:53:52.292Z,1009.59
2016-10-18T11:54:52.394Z,1009.61
2016-10-18T11:55:52.436Z,1009.63
2016-10-18T11:56:52.694Z,1009.65
2016-10-18T11:57:52.547Z,1009.69
2016-10-18T11:58:52.240Z,1009.7
2016-10-18T11:59:52.393Z,1009.72
2016-10-18T12:00:52.486Z,1009.71
2016-10-18T12:01:52.372Z,1009.66
2016-10-18T12:02:52.584Z,1009.66
2016-10-18T12:03:52.581Z,1009.62
2016-10-18T12:04:52.689Z,1009.57
2016-10-18T12:05:52.437Z,1009.56
2016-10-18T12:06:52.458Z,1009.56
2016-10-18T12:07:52.613Z,1009.56
2016-10-18T12:08:52.743Z,1009.49